< < Back
Terminal Aerodrome Forecast


Current Version              Previous Versions:   1  2  3  4  5  6  7  8  9  

Terminal Aerodrome Forecast

758
FTUS42 KGSP 260858 AAA
TAFHKY
TAF AMD
KHKY 260858Z 2609/2706 05004KT P6SM SCT025 BKN035
      TEMPO 2609/2613 BKN025
     FM261500 06004KT P6SM SCT060
     FM262300 12004KT P6SM SCT060
     FM270300 19003KT P6SM FEW060=

Latest METAR

690
SAUS70 KWBC 261100 RRD
MTRHKY
METAR KHKY 261053Z 06004KT 10SM BKN009 OVC015 21/20 A3024 RMK AO2 SLP216
T02110200 $


USA.gov is the U.S. government's official web portal to all federal, state and local government web resources and services.